createdAt,value
2018-02-02T00:00:21.240Z,6.00
2018-02-02T00:02:48.808Z,6.10
2018-02-02T00:07:50.193Z,5.90
2018-02-02T00:10:18.943Z,5.80
2018-02-02T00:12:46.575Z,5.80
2018-02-02T00:15:14.241Z,5.80
2018-02-02T00:17:41.745Z,5.80
2018-02-02T00:20:09.244Z,5.90
2018-02-02T00:22:36.768Z,5.90
2018-02-02T00:25:04.362Z,6.00
2018-02-02T00:27:32.151Z,6.00
2018-02-02T00:29:59.621Z,6.00
2018-02-02T00:32:27.117Z,6.00
2018-02-02T00:34:54.655Z,6.00
2018-02-02T00:37:22.454Z,6.00
2018-02-02T00:39:49.987Z,5.90
2018-02-02T00:42:17.493Z,6.00
2018-02-02T00:44:45.169Z,6.00
2018-02-02T00:49:46.662Z,5.90
2018-02-02T00:52:14.194Z,6.00
2018-02-02T00:54:42.573Z,5.90
2018-02-02T00:57:11.085Z,5.90
2018-02-02T00:59:38.613Z,5.90
2018-02-02T01:02:06.918Z,5.90
2018-02-02T01:04:34.425Z,5.80
2018-02-02T01:07:03.518Z,5.80
2018-02-02T01:09:31.001Z,5.80
2018-02-02T01:11:59.336Z,5.70
2018-02-02T01:14:26.890Z,5.70
2018-02-02T01:16:54.471Z,5.70
2018-02-02T01:19:21.977Z,5.60
2018-02-02T01:21:49.561Z,5.60
2018-02-02T01:24:17.124Z,5.70
2018-02-02T01:26:44.592Z,5.70
2018-02-02T01:29:12.139Z,5.80
2018-02-02T01:31:39.709Z,5.90
2018-02-02T01:34:07.241Z,5.90
2018-02-02T01:36:34.791Z,5.90
2018-02-02T01:39:02.285Z,5.80
2018-02-02T01:41:29.783Z,5.80
2018-02-02T01:43:57.680Z,5.70
2018-02-02T01:46:25.259Z,5.70
2018-02-02T01:48:52.799Z,5.60
2018-02-02T01:51:20.749Z,5.60
2018-02-02T01:53:48.298Z,5.60
2018-02-02T01:56:15.817Z,5.60
2018-02-02T01:58:43.404Z,5.60
2018-02-02T02:01:10.919Z,5.60
2018-02-02T02:03:38.475Z,5.50
2018-02-02T02:06:06.044Z,5.60
2018-02-02T02:08:33.586Z,5.70
2018-02-02T02:11:01.090Z,5.70
2018-02-02T02:13:29.391Z,5.80
2018-02-02T02:15:56.927Z,5.80
2018-02-02T02:18:24.723Z,5.80
2018-02-02T02:20:52.252Z,5.70
2018-02-02T02:23:19.808Z,5.60
2018-02-02T02:25:47.388Z,5.50
2018-02-02T02:28:15.908Z,5.60
2018-02-02T02:30:43.470Z,5.50
2018-02-02T02:33:10.995Z,5.50
2018-02-02T02:35:39.283Z,5.30
2018-02-02T02:38:06.836Z,5.30
2018-02-02T02:40:34.382Z,5.40
2018-02-02T02:43:02.704Z,5.40
2018-02-02T02:45:30.222Z,5.40
2018-02-02T02:47:57.717Z,5.50
2018-02-02T02:50:25.245Z,5.50
2018-02-02T02:52:53.588Z,5.20
2018-02-02T02:55:21.314Z,5.20
2018-02-02T02:57:48.850Z,5.20
2018-02-02T03:00:16.404Z,5.10
2018-02-02T03:02:44.755Z,5.20
2018-02-02T03:05:12.269Z,5.10
2018-02-02T03:07:39.815Z,5.20
2018-02-02T03:10:07.330Z,5.20
2018-02-02T03:12:34.968Z,5.10
2018-02-02T03:15:02.502Z,5.10
2018-02-02T03:17:30.277Z,5.20
2018-02-02T03:19:57.888Z,5.30
2018-02-02T03:22:25.742Z,5.30
2018-02-02T03:24:53.380Z,5.40
2018-02-02T03:27:20.930Z,5.40
2018-02-02T03:29:48.596Z,5.40
2018-02-02T03:32:16.191Z,5.30
2018-02-02T03:34:43.688Z,5.40
2018-02-02T03:37:12.019Z,5.30
2018-02-02T03:39:39.556Z,5.30
2018-02-02T03:42:07.138Z,5.30
2018-02-02T03:44:34.653Z,5.30
2018-02-02T03:47:02.222Z,5.40
2018-02-02T03:49:29.772Z,5.30
2018-02-02T03:51:57.353Z,5.20
2018-02-02T03:54:24.859Z,5.10
2018-02-02T03:56:52.484Z,5.10
2018-02-02T03:59:20.049Z,5.10
2018-02-02T04:01:47.599Z,5.10
2018-02-02T04:04:15.148Z,5.00
2018-02-02T04:06:42.695Z,5.00
2018-02-02T04:09:10.237Z,5.00
2018-02-02T04:11:37.835Z,5.00
2018-02-02T04:14:05.400Z,5.00
2018-02-02T04:16:33.145Z,5.00
2018-02-02T04:19:00.806Z,5.00
2018-02-02T04:21:28.361Z,5.00
2018-02-02T04:23:55.911Z,5.00
2018-02-02T04:26:23.498Z,4.90
2018-02-02T04:28:51.075Z,4.90
2018-02-02T04:31:18.645Z,4.90
2018-02-02T04:33:46.198Z,4.90
2018-02-02T04:36:15.246Z,4.90
2018-02-02T04:38:42.760Z,4.90
2018-02-02T04:41:10.290Z,4.80
2018-02-02T04:43:37.817Z,4.80
2018-02-02T04:46:05.365Z,4.80
2018-02-02T04:48:33.738Z,4.80
2018-02-02T04:51:01.495Z,4.80
2018-02-02T04:53:29.826Z,4.80
2018-02-02T04:55:57.355Z,4.80
2018-02-02T04:58:24.910Z,4.80
2018-02-02T05:00:53.321Z,4.80
2018-02-02T05:03:20.869Z,4.80
2018-02-02T05:05:48.539Z,4.80
2018-02-02T05:08:16.632Z,4.70
2018-02-02T05:10:44.155Z,4.70
2018-02-02T05:13:11.690Z,4.70
2018-02-02T05:15:39.953Z,4.80
2018-02-02T05:18:07.458Z,4.80
2018-02-02T05:20:34.984Z,4.80
2018-02-02T05:23:02.489Z,4.80
2018-02-02T05:25:30.145Z,4.70
2018-02-02T05:27:58.176Z,4.70
2018-02-02T05:30:25.683Z,4.70
2018-02-02T05:32:53.268Z,4.70
2018-02-02T05:35:20.858Z,4.60
2018-02-02T05:37:49.179Z,4.70
2018-02-02T05:40:16.719Z,4.70
2018-02-02T05:42:44.252Z,4.80
2018-02-02T05:45:11.762Z,4.70
2018-02-02T05:47:39.507Z,4.70
2018-02-02T05:50:07.054Z,4.60
2018-02-02T05:52:34.605Z,4.60
2018-02-02T05:55:02.231Z,4.60
2018-02-02T05:57:29.765Z,4.50
2018-02-02T05:59:57.293Z,4.50
2018-02-02T06:02:24.827Z,4.40
2018-02-02T06:04:52.737Z,4.40
2018-02-02T06:07:20.268Z,4.40
2018-02-02T06:09:47.795Z,4.30
2018-02-02T06:12:15.340Z,4.30
2018-02-02T06:14:42.891Z,4.30
2018-02-02T06:17:10.547Z,4.20
2018-02-02T06:19:38.289Z,4.20
2018-02-02T06:22:05.861Z,4.10
2018-02-02T06:24:33.399Z,4.10
2018-02-02T06:27:00.922Z,4.10
2018-02-02T06:29:29.241Z,4.00
2018-02-02T06:31:56.790Z,4.00
2018-02-02T06:34:24.348Z,4.00
2018-02-02T06:36:51.909Z,4.00
2018-02-02T06:39:19.498Z,4.00
2018-02-02T06:41:47.013Z,4.00
2018-02-02T06:44:14.538Z,4.00
2018-02-02T06:46:42.117Z,4.10
2018-02-02T06:49:09.659Z,4.20
2018-02-02T06:51:37.302Z,4.20
2018-02-02T06:54:04.867Z,4.20
2018-02-02T06:56:32.419Z,4.20
2018-02-02T06:58:59.990Z,4.30
2018-02-02T07:01:27.587Z,4.20
2018-02-02T07:03:55.983Z,4.20
2018-02-02T07:06:23.581Z,4.20
2018-02-02T07:08:51.086Z,4.30
2018-02-02T07:11:20.436Z,4.40
2018-02-02T07:13:47.934Z,4.40
2018-02-02T07:16:15.515Z,4.40
2018-02-02T07:18:43.055Z,4.50
2018-02-02T07:21:10.670Z,4.60
2018-02-02T07:23:38.209Z,4.60
2018-02-02T07:26:05.934Z,4.70
2018-02-02T07:28:34.293Z,4.70
2018-02-02T07:31:02.852Z,4.70
2018-02-02T07:33:30.368Z,4.80
2018-02-02T07:35:57.820Z,5.00
2018-02-02T07:38:25.398Z,5.10
2018-02-02T07:40:53.708Z,5.40
2018-02-02T07:43:21.249Z,5.40
2018-02-02T07:45:48.812Z,5.40
2018-02-02T07:48:16.383Z,5.40
2018-02-02T07:50:43.927Z,5.50
2018-02-02T07:53:11.452Z,5.70
2018-02-02T07:55:38.940Z,5.70
2018-02-02T07:58:06.505Z,5.90
2018-02-02T08:00:39.713Z,5.80
2018-02-02T08:03:07.298Z,5.90
2018-02-02T08:05:34.821Z,5.80
2018-02-02T08:08:02.390Z,5.80
2018-02-02T08:10:30.041Z,5.70
2018-02-02T08:12:57.688Z,5.60
2018-02-02T08:15:25.217Z,5.50
2018-02-02T08:17:52.793Z,5.50
2018-02-02T08:20:20.309Z,5.60
2018-02-02T08:22:47.860Z,5.70
2018-02-02T08:25:15.310Z,5.70
2018-02-02T08:27:42.901Z,6.20
2018-02-02T08:30:10.426Z,7.60
2018-02-02T08:32:37.897Z,9.10
2018-02-02T08:35:05.502Z,10.30
2018-02-02T08:37:33.818Z,11.80
2018-02-02T08:40:01.355Z,11.70
2018-02-02T08:42:29.051Z,12.10
2018-02-02T08:44:56.591Z,12.90
2018-02-02T08:47:24.142Z,13.80
2018-02-02T08:49:51.884Z,14.70
2018-02-02T08:52:19.388Z,14.90
2018-02-02T08:54:46.884Z,14.60
2018-02-02T08:57:14.442Z,14.30
2018-02-02T08:59:42.212Z,13.60
2018-02-02T09:02:09.726Z,13.70
2018-02-02T09:04:37.293Z,13.80
2018-02-02T09:07:04.843Z,14.30
2018-02-02T09:09:32.391Z,14.60
2018-02-02T09:11:59.910Z,15.40
2018-02-02T09:14:27.600Z,15.70
2018-02-02T09:16:55.332Z,16.00
2018-02-02T09:19:22.970Z,16.30
2018-02-02T09:21:53.841Z,16.10
2018-02-02T09:24:21.388Z,16.10
2018-02-02T09:26:48.842Z,15.10
2018-02-02T09:29:16.441Z,13.90
2018-02-02T09:31:43.914Z,12.70
2018-02-02T09:34:11.736Z,11.50
2018-02-02T09:36:39.766Z,10.60
2018-02-02T09:39:07.297Z,11.00
2018-02-02T09:41:34.796Z,11.10
2018-02-02T09:44:02.422Z,12.40
2018-02-02T09:46:29.872Z,13.60
2018-02-02T09:48:57.522Z,14.10
2018-02-02T09:51:25.072Z,14.00
2018-02-02T09:53:52.625Z,14.90
2018-02-02T09:56:20.532Z,15.20
2018-02-02T09:58:48.146Z,13.70
2018-02-02T10:01:15.706Z,12.90
2018-02-02T10:03:43.438Z,11.40
2018-02-02T10:06:10.910Z,10.30
2018-02-02T10:08:38.449Z,9.70
2018-02-02T10:11:06.016Z,10.30
2018-02-02T10:13:33.604Z,10.80
2018-02-02T10:16:01.203Z,10.60
2018-02-02T10:18:28.727Z,10.80
2018-02-02T10:20:56.283Z,11.60
2018-02-02T10:23:23.825Z,12.00
2018-02-02T10:25:51.386Z,13.20
2018-02-02T10:28:18.929Z,13.90
2018-02-02T10:30:46.651Z,14.70
2018-02-02T10:33:15.077Z,14.80
2018-02-02T10:35:42.688Z,14.80
2018-02-02T10:38:11.038Z,13.60
2018-02-02T10:40:38.639Z,13.50
2018-02-02T10:43:06.187Z,13.70
2018-02-02T10:45:33.718Z,13.10
2018-02-02T10:48:01.236Z,13.30
2018-02-02T10:50:28.989Z,13.40
2018-02-02T10:52:57.310Z,11.60
2018-02-02T10:55:24.813Z,11.60
2018-02-02T10:57:52.520Z,10.80
2018-02-02T11:00:20.095Z,10.60
2018-02-02T11:02:53.346Z,9.70
2018-02-02T11:05:20.853Z,9.60
2018-02-02T11:07:48.490Z,10.20
2018-02-02T11:10:16.076Z,10.50
2018-02-02T11:12:43.593Z,10.80
2018-02-02T11:15:11.846Z,10.40
2018-02-02T11:17:39.445Z,10.40
2018-02-02T11:20:07.083Z,10.40
2018-02-02T11:22:34.629Z,9.90
2018-02-02T11:25:02.163Z,10.10
2018-02-02T11:27:30.073Z,10.50
2018-02-02T11:29:57.601Z,11.30
2018-02-02T11:32:25.315Z,11.70
2018-02-02T11:34:52.871Z,12.00
2018-02-02T11:37:20.422Z,12.20
2018-02-02T11:39:47.990Z,12.50
2018-02-02T11:42:15.537Z,13.40
2018-02-02T11:44:43.055Z,13.40
2018-02-02T11:47:10.506Z,13.10
2018-02-02T11:49:38.854Z,13.30
2018-02-02T11:52:06.331Z,13.30
2018-02-02T11:54:33.907Z,13.00
2018-02-02T11:57:01.473Z,12.80
2018-02-02T11:59:29.828Z,13.20
2018-02-02T12:01:57.345Z,13.20
2018-02-02T12:04:25.689Z,13.20
2018-02-02T12:06:53.185Z,13.20
2018-02-02T12:09:20.711Z,13.40
2018-02-02T12:11:49.755Z,13.80
2018-02-02T12:14:17.428Z,13.80
2018-02-02T12:16:45.042Z,13.60
2018-02-02T12:19:12.536Z,13.60
2018-02-02T12:21:46.559Z,13.70
2018-02-02T12:24:21.781Z,13.90
2018-02-02T12:29:45.465Z,14.20
2018-02-02T12:32:13.037Z,14.90
2018-02-02T12:34:56.619Z,15.70
2018-02-02T12:37:24.183Z,16.00
2018-02-02T12:39:51.720Z,15.60
2018-02-02T12:42:19.853Z,15.20
2018-02-02T12:44:47.403Z,15.30
2018-02-02T12:47:15.061Z,15.80
2018-02-02T12:49:54.501Z,15.90
2018-02-02T12:52:22.101Z,15.90
2018-02-02T12:54:49.573Z,15.50
2018-02-02T12:57:17.308Z,15.70
2018-02-02T12:59:45.016Z,16.60
2018-02-02T13:02:12.554Z,16.00
2018-02-02T13:04:40.069Z,16.00
2018-02-02T13:07:07.666Z,15.60
2018-02-02T13:09:35.205Z,15.90
2018-02-02T13:12:02.835Z,15.70
2018-02-02T13:14:30.341Z,15.80
2018-02-02T13:16:57.927Z,15.90
2018-02-02T13:19:25.473Z,15.80
2018-02-02T13:21:53.019Z,15.80
2018-02-02T13:24:20.559Z,15.90
2018-02-02T13:26:48.433Z,16.80
2018-02-02T13:29:15.971Z,16.80
2018-02-02T13:31:43.544Z,17.20
2018-02-02T13:34:11.149Z,17.50
2018-02-02T13:36:38.702Z,17.60
2018-02-02T13:39:06.356Z,17.60
2018-02-02T13:41:33.860Z,17.00
2018-02-02T13:44:02.378Z,14.50
2018-02-02T13:46:29.945Z,14.40
2018-02-02T13:48:57.519Z,14.90
2018-02-02T13:51:25.024Z,16.10
2018-02-02T13:53:52.966Z,16.30
2018-02-02T13:56:20.455Z,16.90
2018-02-02T13:58:48.769Z,18.10
2018-02-02T14:01:16.359Z,18.10
2018-02-02T14:03:43.870Z,18.50
2018-02-02T14:06:11.430Z,18.40
2018-02-02T14:08:38.999Z,18.60
2018-02-02T14:11:06.521Z,19.60
2018-02-02T14:13:34.113Z,20.00
2018-02-02T14:16:01.666Z,19.90
2018-02-02T14:18:29.148Z,19.60
2018-02-02T14:20:56.757Z,19.80
2018-02-02T14:23:24.352Z,19.50
2018-02-02T14:25:51.913Z,19.80
2018-02-02T14:28:19.498Z,20.10
2018-02-02T14:30:47.063Z,20.30
2018-02-02T14:33:14.787Z,19.90
2018-02-02T14:35:44.495Z,19.50
2018-02-02T14:38:14.792Z,19.30
2018-02-02T14:40:44.098Z,17.80
2018-02-02T14:43:12.414Z,14.70
2018-02-02T14:45:39.884Z,14.60
2018-02-02T14:48:08.018Z,13.80
2018-02-02T14:50:35.852Z,13.60
2018-02-02T14:53:05.164Z,14.50
2018-02-02T14:55:33.306Z,14.00
2018-02-02T14:58:03.910Z,13.20
2018-02-02T15:00:34.413Z,12.50
2018-02-02T15:03:04.074Z,11.40
2018-02-02T15:05:31.925Z,11.40
2018-02-02T15:08:00.712Z,10.80
2018-02-02T15:10:28.268Z,10.80
2018-02-02T15:12:55.945Z,10.30
2018-02-02T15:15:23.458Z,10.20
2018-02-02T15:17:51.046Z,10.20
2018-02-02T15:20:18.538Z,10.00
2018-02-02T15:22:46.997Z,9.90
2018-02-02T15:25:14.622Z,9.90
2018-02-02T15:27:42.179Z,9.90
2018-02-02T15:30:09.750Z,9.70
2018-02-02T15:32:37.563Z,9.70
2018-02-02T15:35:05.185Z,9.60
2018-02-02T15:37:32.759Z,9.40
2018-02-02T15:40:00.260Z,9.30
2018-02-02T15:42:27.828Z,9.30
2018-02-02T15:44:56.152Z,9.20
2018-02-02T15:47:23.774Z,9.20
2018-02-02T15:49:52.091Z,9.10
2018-02-02T15:52:19.765Z,9.10
2018-02-02T15:54:47.718Z,8.90
2018-02-02T15:57:15.192Z,8.70
2018-02-02T15:59:42.644Z,8.80
2018-02-02T16:02:10.251Z,8.90
2018-02-02T16:04:37.761Z,8.80
2018-02-02T16:07:05.383Z,8.80
2018-02-02T16:09:32.948Z,8.70
2018-02-02T16:12:00.544Z,8.50
2018-02-02T16:14:29.026Z,8.50
2018-02-02T16:16:56.605Z,8.50
2018-02-02T16:19:24.205Z,8.50
2018-02-02T16:21:52.566Z,8.40
2018-02-02T16:24:20.320Z,8.40
2018-02-02T16:26:48.791Z,8.50
2018-02-02T16:29:16.407Z,8.50
2018-02-02T16:31:43.913Z,8.50
2018-02-02T16:34:11.512Z,8.50
2018-02-02T16:36:39.186Z,8.50
2018-02-02T16:39:06.762Z,8.50
2018-02-02T16:41:34.359Z,8.60
2018-02-02T16:44:01.926Z,8.60
2018-02-02T16:46:29.509Z,8.60
2018-02-02T16:48:57.873Z,8.30
2018-02-02T16:51:25.523Z,8.20
2018-02-02T16:53:52.976Z,8.20
2018-02-02T16:56:20.545Z,8.10
2018-02-02T16:58:50.158Z,8.10
2018-02-02T17:01:17.737Z,8.10
2018-02-02T17:03:45.325Z,8.10
2018-02-02T17:06:12.910Z,8.10
2018-02-02T17:08:41.298Z,8.10
2018-02-02T17:11:08.857Z,8.10
2018-02-02T17:13:36.398Z,8.20
2018-02-02T17:16:03.937Z,8.20
2018-02-02T17:18:31.424Z,8.20
2018-02-02T17:20:58.979Z,8.20
2018-02-02T17:23:32.262Z,8.20
2018-02-02T17:25:59.834Z,8.20
2018-02-02T17:28:29.787Z,8.10
2018-02-02T17:30:57.312Z,8.00
2018-02-02T17:33:24.881Z,8.00
2018-02-02T17:35:52.476Z,8.00
2018-02-02T17:38:20.062Z,8.00
2018-02-02T17:40:47.880Z,7.90
2018-02-02T17:43:15.413Z,8.00
2018-02-02T17:45:43.008Z,8.00
2018-02-02T17:48:10.555Z,7.90
2018-02-02T17:50:38.068Z,7.90
2018-02-02T17:53:05.604Z,7.90
2018-02-02T17:55:33.173Z,8.10
2018-02-02T17:58:00.714Z,8.10
2018-02-02T18:00:30.548Z,7.90
2018-02-02T18:05:51.807Z,7.90
2018-02-02T18:08:19.482Z,8.00
2018-02-02T18:10:47.048Z,7.90
2018-02-02T18:13:14.577Z,7.90
2018-02-02T18:15:42.081Z,8.00
2018-02-02T18:18:11.154Z,7.90
2018-02-02T18:20:39.072Z,7.90
2018-02-02T18:23:06.659Z,8.00
2018-02-02T18:25:34.170Z,8.00
2018-02-02T18:28:01.796Z,8.00
2018-02-02T18:30:29.296Z,8.10
2018-02-02T18:32:56.935Z,8.10
2018-02-02T18:35:24.526Z,8.10
2018-02-02T18:37:52.986Z,7.90
2018-02-02T18:40:20.568Z,7.90
2018-02-02T18:42:48.137Z,7.90
2018-02-02T18:45:15.652Z,7.90
2018-02-02T18:47:47.491Z,7.90
2018-02-02T18:50:15.021Z,7.90
2018-02-02T18:52:42.640Z,7.90
2018-02-02T18:55:10.193Z,8.00
2018-02-02T18:57:38.052Z,7.90
2018-02-02T19:00:05.598Z,7.80
2018-02-02T19:02:33.179Z,7.90
2018-02-02T19:05:00.748Z,8.00
2018-02-02T19:07:29.194Z,8.00
2018-02-02T19:09:56.738Z,7.90
2018-02-02T19:12:24.322Z,7.90
2018-02-02T19:14:51.938Z,7.80
2018-02-02T19:17:19.459Z,7.80
2018-02-02T19:19:47.038Z,7.90
2018-02-02T19:22:15.164Z,8.00
2018-02-02T19:24:43.446Z,8.00
2018-02-02T19:27:10.975Z,8.00
2018-02-02T19:29:38.890Z,7.90
2018-02-02T19:32:06.511Z,7.90
2018-02-02T19:34:34.101Z,7.80
2018-02-02T19:37:01.602Z,7.70
2018-02-02T19:39:29.258Z,7.80
2018-02-02T19:41:57.739Z,8.00
2018-02-02T19:44:25.337Z,8.00
2018-02-02T19:46:52.896Z,8.00
2018-02-02T19:49:20.465Z,8.00
2018-02-02T19:51:48.062Z,8.10
2018-02-02T19:54:15.685Z,8.20
2018-02-02T19:56:43.208Z,8.20
2018-02-02T19:59:10.916Z,8.10
2018-02-02T20:01:38.497Z,8.10
2018-02-02T20:04:06.072Z,8.10
2018-02-02T20:06:33.622Z,8.00
2018-02-02T20:09:01.185Z,8.00
2018-02-02T20:11:28.787Z,7.90
2018-02-02T20:13:56.364Z,7.80
2018-02-02T20:16:23.929Z,7.80
2018-02-02T20:18:51.448Z,7.70
2018-02-02T20:21:19.023Z,7.60
2018-02-02T20:23:47.212Z,7.60
2018-02-02T20:26:14.784Z,7.50
2018-02-02T20:28:42.317Z,7.50
2018-02-02T20:31:10.611Z,7.50
2018-02-02T20:33:38.162Z,7.50
2018-02-02T20:36:05.677Z,7.50
2018-02-02T20:38:33.354Z,7.50
2018-02-02T20:41:01.669Z,7.40
2018-02-02T20:43:29.234Z,7.40
2018-02-02T20:45:56.814Z,7.40
2018-02-02T20:48:24.365Z,7.30
2018-02-02T20:50:51.947Z,7.40
2018-02-02T20:53:19.577Z,7.50
2018-02-02T20:55:47.095Z,7.50
2018-02-02T20:58:14.577Z,7.50
2018-02-02T21:00:42.126Z,7.50
2018-02-02T21:03:10.698Z,7.50
2018-02-02T21:05:38.291Z,7.50
2018-02-02T21:08:05.900Z,7.50
2018-02-02T21:10:33.518Z,7.50
2018-02-02T21:13:01.083Z,7.50
2018-02-02T21:15:28.625Z,7.60
2018-02-02T21:17:56.147Z,7.60
2018-02-02T21:20:23.724Z,7.70
2018-02-02T21:22:51.273Z,7.60
2018-02-02T21:25:19.597Z,7.60
2018-02-02T21:27:47.129Z,7.60
2018-02-02T21:30:14.645Z,7.60
2018-02-02T21:32:42.493Z,7.60
2018-02-02T21:35:10.019Z,7.50
2018-02-02T21:37:37.547Z,7.50
2018-02-02T21:40:05.126Z,7.60
2018-02-02T21:42:33.513Z,7.80
2018-02-02T21:45:01.071Z,7.80
2018-02-02T21:47:29.326Z,7.80
2018-02-02T21:49:56.829Z,7.80
2018-02-02T21:52:24.567Z,7.80
2018-02-02T21:54:52.110Z,7.70
2018-02-02T21:57:19.742Z,7.50
2018-02-02T21:59:47.191Z,7.40
2018-02-02T22:02:14.763Z,7.30
2018-02-02T22:04:42.224Z,7.40
2018-02-02T22:07:09.905Z,7.50
2018-02-02T22:09:37.436Z,7.50
2018-02-02T22:12:05.164Z,7.40
2018-02-02T22:14:32.675Z,7.30
2018-02-02T22:17:00.339Z,7.20
2018-02-02T22:19:27.864Z,7.10
2018-02-02T22:21:55.553Z,7.10
2018-02-02T22:24:23.119Z,7.00
2018-02-02T22:26:51.560Z,7.00
2018-02-02T22:29:19.167Z,7.00
2018-02-02T22:31:46.728Z,7.10
2018-02-02T22:34:14.456Z,7.10
2018-02-02T22:36:42.249Z,7.10
2018-02-02T22:39:10.055Z,7.00
2018-02-02T22:41:37.746Z,7.00
2018-02-02T22:44:05.374Z,7.00
2018-02-02T22:46:32.881Z,6.90
2018-02-02T22:49:00.595Z,7.10
2018-02-02T22:51:28.908Z,6.90
2018-02-02T22:53:56.469Z,6.90
2018-02-02T22:56:24.083Z,6.90
2018-02-02T22:58:51.668Z,6.70
2018-02-02T23:01:19.197Z,6.70
2018-02-02T23:03:46.742Z,6.60
2018-02-02T23:08:47.157Z,6.50
2018-02-02T23:11:14.697Z,6.50
2018-02-02T23:13:42.467Z,6.60
2018-02-02T23:16:10.124Z,6.60
2018-02-02T23:18:37.596Z,6.60
2018-02-02T23:21:05.345Z,6.70
2018-02-02T23:23:32.908Z,6.70
2018-02-02T23:26:00.483Z,6.60
2018-02-02T23:28:28.777Z,6.50
2018-02-02T23:30:56.514Z,6.30
2018-02-02T23:33:24.060Z,6.10
2018-02-02T23:35:51.632Z,6.10
2018-02-02T23:38:19.378Z,6.20
2018-02-02T23:40:47.009Z,6.20
2018-02-02T23:43:14.542Z,6.10
2018-02-02T23:45:42.214Z,6.20
2018-02-02T23:48:09.762Z,6.20
2018-02-02T23:50:37.221Z,6.30
2018-02-02T23:53:04.817Z,6.30
2018-02-02T23:55:32.267Z,6.30
2018-02-02T23:58:00.570Z,6.20
